createdAt,value
2018-07-20T00:00:21.322Z,0
2018-07-20T00:01:32.017Z,0
2018-07-20T00:02:40.080Z,0
2018-07-20T00:03:48.149Z,0
2018-07-20T00:04:56.413Z,0
2018-07-20T00:06:04.485Z,0
2018-07-20T00:07:12.557Z,0
2018-07-20T00:08:20.621Z,0
2018-07-20T00:09:28.686Z,0
2018-07-20T00:10:36.778Z,0
2018-07-20T00:11:45.025Z,0
2018-07-20T00:12:53.143Z,0
2018-07-20T00:14:01.257Z,0
2018-07-20T00:15:09.234Z,0
2018-07-20T00:16:17.335Z,0
2018-07-20T00:17:25.338Z,0
2018-07-20T00:18:33.424Z,0
2018-07-20T00:19:41.492Z,0
2018-07-20T00:20:49.569Z,0
2018-07-20T00:21:57.631Z,0
2018-07-20T00:23:05.668Z,0
2018-07-20T00:24:13.766Z,0
2018-07-20T00:25:21.831Z,0
2018-07-20T00:26:29.904Z,0
2018-07-20T00:27:37.957Z,0
2018-07-20T00:28:46.228Z,0
2018-07-20T00:29:54.300Z,0
2018-07-20T00:31:02.372Z,0
2018-07-20T00:32:10.538Z,0
2018-07-20T00:33:18.855Z,0
2018-07-20T00:34:26.561Z,0
2018-07-20T00:35:34.892Z,0
2018-07-20T00:36:42.701Z,0
2018-07-20T00:37:50.772Z,0
2018-07-20T00:38:59.042Z,0
2018-07-20T00:40:07.095Z,0
2018-07-20T00:41:15.163Z,0
2018-07-20T00:42:23.224Z,0
2018-07-20T00:43:31.303Z,0
2018-07-20T00:44:39.416Z,0
2018-07-20T00:45:47.434Z,0
2018-07-20T00:46:55.837Z,0
2018-07-20T00:48:03.573Z,0
2018-07-20T00:49:11.922Z,0
2018-07-20T00:50:19.707Z,0
2018-07-20T00:51:27.785Z,0
2018-07-20T00:52:35.897Z,0
2018-07-20T00:53:43.882Z,0
2018-07-20T00:54:51.976Z,0
2018-07-20T00:56:00.039Z,0
2018-07-20T00:57:08.090Z,0
2018-07-20T00:58:16.169Z,0
2018-07-20T00:59:24.234Z,0
2018-07-20T01:00:36.763Z,0
2018-07-20T01:01:40.358Z,0
2018-07-20T01:02:48.436Z,0
2018-07-20T01:03:56.516Z,0
2018-07-20T01:05:04.580Z,0
2018-07-20T01:06:12.648Z,0
2018-07-20T01:07:20.711Z,0
2018-07-20T01:08:28.787Z,0
2018-07-20T01:09:37.105Z,0
2018-07-20T01:10:44.926Z,0
2018-07-20T01:11:52.991Z,0
2018-07-20T01:13:01.260Z,0
2018-07-20T01:14:09.320Z,0
2018-07-20T01:15:17.484Z,0
2018-07-20T01:17:06.771Z,0
2018-07-20T01:17:33.531Z,0
2018-07-20T01:18:41.605Z,0
2018-07-20T01:19:49.763Z,0
2018-07-20T01:20:57.738Z,0
2018-07-20T01:22:05.773Z,0
2018-07-20T01:23:13.872Z,0
2018-07-20T01:24:21.936Z,0
2018-07-20T01:25:31.607Z,0
2018-07-20T01:26:39.733Z,0
2018-07-20T01:27:47.797Z,0
2018-07-20T01:28:55.787Z,0
2018-07-20T01:30:04.206Z,0
2018-07-20T01:31:11.966Z,0
2018-07-20T01:32:20.073Z,0
2018-07-20T01:33:28.103Z,0
2018-07-20T01:34:36.154Z,0
2018-07-20T01:35:44.227Z,0
2018-07-20T01:36:52.294Z,0
2018-07-20T01:38:00.375Z,0
2018-07-20T01:39:08.430Z,0
2018-07-20T01:40:16.505Z,0
2018-07-20T01:41:24.567Z,0
2018-07-20T01:42:33.104Z,0
2018-07-20T01:43:40.911Z,0
2018-07-20T01:44:48.976Z,0
2018-07-20T01:45:57.189Z,0
2018-07-20T01:47:05.089Z,0
2018-07-20T01:48:13.191Z,0
2018-07-20T01:49:21.347Z,0
2018-07-20T01:50:29.318Z,0
2018-07-20T01:51:37.644Z,0
2018-07-20T01:52:45.425Z,0
2018-07-20T01:53:53.526Z,0
2018-07-20T01:55:01.614Z,0
2018-07-20T01:56:09.649Z,0
2018-07-20T01:57:17.732Z,0
2018-07-20T01:58:25.758Z,0
2018-07-20T01:59:33.858Z,0
2018-07-20T02:00:41.919Z,0
2018-07-20T02:01:50.006Z,0
2018-07-20T02:02:58.068Z,0
2018-07-20T02:04:06.127Z,0
2018-07-20T02:05:14.287Z,0
2018-07-20T02:06:22.271Z,0
2018-07-20T02:07:30.335Z,0
2018-07-20T02:08:38.404Z,0
2018-07-20T02:09:46.725Z,0
2018-07-20T02:10:54.543Z,0
2018-07-20T02:12:02.613Z,0
2018-07-20T02:13:10.676Z,0
2018-07-20T02:14:18.736Z,0
2018-07-20T02:15:27.064Z,0
2018-07-20T02:16:34.901Z,0
2018-07-20T02:17:43.189Z,0
2018-07-20T02:18:51.083Z,0
2018-07-20T02:19:59.122Z,0
2018-07-20T02:21:07.139Z,0
2018-07-20T02:22:15.189Z,0
2018-07-20T02:23:23.266Z,0
2018-07-20T02:24:31.329Z,0
2018-07-20T02:25:39.694Z,0
2018-07-20T02:26:47.470Z,0
2018-07-20T02:27:55.507Z,0
2018-07-20T02:29:03.767Z,0
2018-07-20T02:30:11.645Z,0
2018-07-20T02:31:20.029Z,0
2018-07-20T02:32:27.788Z,0
2018-07-20T02:33:35.821Z,0
2018-07-20T02:34:43.922Z,0
2018-07-20T02:35:52.395Z,0
2018-07-20T02:37:00.048Z,0
2018-07-20T02:38:08.108Z,0
2018-07-20T02:39:16.185Z,0
2018-07-20T02:40:24.712Z,0
2018-07-20T02:41:32.531Z,0
2018-07-20T02:42:40.589Z,0
2018-07-20T02:43:48.671Z,0
2018-07-20T02:44:56.718Z,0
2018-07-20T02:46:04.825Z,0
2018-07-20T02:47:12.900Z,0
2018-07-20T02:48:20.919Z,0
2018-07-20T02:49:28.985Z,0
2018-07-20T02:50:37.239Z,0
2018-07-20T02:51:45.289Z,0
2018-07-20T02:52:53.381Z,0
2018-07-20T02:54:01.462Z,0
2018-07-20T02:55:09.510Z,0
2018-07-20T02:56:17.565Z,0
2018-07-20T02:57:25.619Z,0
2018-07-20T02:58:33.710Z,0
2018-07-20T02:59:41.857Z,0
2018-07-20T03:00:49.830Z,0
2018-07-20T03:01:57.901Z,0
2018-07-20T03:03:05.941Z,0
2018-07-20T03:04:14.023Z,0
2018-07-20T03:05:22.306Z,0
2018-07-20T03:06:30.725Z,0
2018-07-20T03:07:38.435Z,4
2018-07-20T03:08:46.489Z,4
2018-07-20T03:09:54.569Z,0
2018-07-20T03:11:02.715Z,4
2018-07-20T03:12:10.694Z,4
2018-07-20T03:13:18.783Z,4
2018-07-20T03:14:26.830Z,4
2018-07-20T03:15:34.891Z,8
2018-07-20T03:16:42.961Z,8
2018-07-20T03:17:51.285Z,8
2018-07-20T03:18:59.566Z,12
2018-07-20T03:20:07.358Z,12
2018-07-20T03:21:15.403Z,16
2018-07-20T03:22:23.494Z,20
2018-07-20T03:23:31.588Z,20
2018-07-20T03:24:39.634Z,24
2018-07-20T03:25:47.688Z,32
2018-07-20T03:26:55.728Z,36
2018-07-20T03:28:03.820Z,40
2018-07-20T03:29:11.974Z,44
2018-07-20T03:30:19.967Z,52
2018-07-20T03:31:28.027Z,64
2018-07-20T03:32:36.082Z,72
2018-07-20T03:33:44.160Z,80
2018-07-20T03:34:52.232Z,92
2018-07-20T03:36:00.288Z,108
2018-07-20T03:37:08.408Z,124
2018-07-20T03:38:16.435Z,144
2018-07-20T03:39:24.487Z,164
2018-07-20T03:40:32.545Z,188
2018-07-20T03:41:40.629Z,212
2018-07-20T03:42:48.891Z,236
2018-07-20T03:43:56.960Z,264
2018-07-20T03:45:05.013Z,292
2018-07-20T03:46:13.079Z,324
2018-07-20T03:47:21.158Z,352
2018-07-20T03:48:29.234Z,380
2018-07-20T03:49:37.654Z,412
2018-07-20T03:50:45.333Z,448
2018-07-20T03:51:53.428Z,480
2018-07-20T03:53:01.502Z,516
2018-07-20T03:54:09.547Z,552
2018-07-20T03:55:17.617Z,592
2018-07-20T03:56:25.662Z,636
2018-07-20T03:57:33.759Z,676
2018-07-20T03:58:41.818Z,728
2018-07-20T03:59:49.887Z,776
2018-07-20T04:00:58.104Z,828
2018-07-20T04:02:06.007Z,880
2018-07-20T04:03:14.132Z,932
2018-07-20T04:04:22.170Z,992
2018-07-20T04:05:30.224Z,1048
2018-07-20T04:06:38.283Z,1100
2018-07-20T04:07:46.351Z,1140
2018-07-20T04:08:54.408Z,1160
2018-07-20T04:10:02.481Z,1188
2018-07-20T04:11:10.539Z,1236
2018-07-20T04:12:18.622Z,1300
2018-07-20T04:13:26.689Z,1376
2018-07-20T04:14:34.775Z,1456
2018-07-20T04:15:43.654Z,1536
2018-07-20T04:16:50.880Z,1612
2018-07-20T04:17:58.946Z,1684
2018-07-20T04:19:07.019Z,1768
2018-07-20T04:20:15.136Z,1860
2018-07-20T04:21:24.216Z,1984
2018-07-20T04:22:31.733Z,2124
2018-07-20T04:23:39.281Z,2296
2018-07-20T04:24:47.344Z,2496
2018-07-20T04:25:56.964Z,2680
2018-07-20T04:27:03.477Z,2832
2018-07-20T04:28:11.556Z,2940
2018-07-20T04:29:19.609Z,3016
2018-07-20T04:30:27.684Z,3048
2018-07-20T04:31:35.737Z,3044
2018-07-20T04:32:43.836Z,3048
2018-07-20T04:33:51.894Z,3036
2018-07-20T04:34:59.947Z,3048
2018-07-20T04:36:08.005Z,3068
2018-07-20T04:37:16.085Z,3116
2018-07-20T04:38:24.153Z,3136
2018-07-20T04:39:32.222Z,3148
2018-07-20T04:40:42.052Z,3188
2018-07-20T04:41:48.400Z,3260
2018-07-20T04:42:56.435Z,3356
2018-07-20T04:44:04.529Z,3452
2018-07-20T04:45:12.552Z,3556
2018-07-20T04:46:21.054Z,3668
2018-07-20T04:47:28.695Z,3800
2018-07-20T04:48:36.752Z,3968
2018-07-20T04:49:45.002Z,4080
2018-07-20T04:50:53.131Z,4144
2018-07-20T04:52:00.957Z,4264
2018-07-20T04:53:09.016Z,4552
2018-07-20T04:54:17.082Z,4776
2018-07-20T04:55:25.143Z,4816
2018-07-20T04:56:33.491Z,4872
2018-07-20T04:57:41.322Z,4924
2018-07-20T04:58:49.439Z,4900
2018-07-20T04:59:57.428Z,4832
2018-07-20T05:01:05.484Z,4736
2018-07-20T05:02:13.724Z,4676
2018-07-20T05:03:21.835Z,4644
2018-07-20T05:04:30.000Z,4608
2018-07-20T05:05:38.775Z,4580
2018-07-20T05:06:47.787Z,4812
2018-07-20T05:07:54.313Z,5860
2018-07-20T05:09:02.293Z,8024
2018-07-20T05:10:10.447Z,9700
2018-07-20T05:11:19.828Z,10676
2018-07-20T05:12:28.148Z,11852
2018-07-20T05:13:35.231Z,9140
2018-07-20T05:14:43.554Z,6408
2018-07-20T05:15:52.624Z,5688
2018-07-20T05:16:59.504Z,4764
2018-07-20T05:18:07.381Z,4748
2018-07-20T05:19:15.359Z,4784
2018-07-20T05:20:24.607Z,4688
2018-07-20T05:21:31.515Z,4700
2018-07-20T05:22:39.591Z,5048
2018-07-20T05:23:47.647Z,5280
2018-07-20T05:24:55.706Z,5416
2018-07-20T05:26:03.794Z,5564
2018-07-20T05:27:11.872Z,5820
2018-07-20T05:28:19.928Z,6132
2018-07-20T05:29:27.988Z,6104
2018-07-20T05:30:36.062Z,6216
2018-07-20T05:31:44.142Z,6324
2018-07-20T05:32:53.218Z,6424
2018-07-20T05:34:03.318Z,6544
2018-07-20T05:35:08.338Z,6608
2018-07-20T05:36:16.422Z,6688
2018-07-20T05:38:32.804Z,6840
2018-07-20T05:39:40.604Z,6880
2018-07-20T05:40:54.622Z,6916
2018-07-20T05:42:02.597Z,6948
2018-07-20T05:43:16.329Z,7016
2018-07-20T05:44:24.397Z,7112
2018-07-20T05:45:33.889Z,7196
2018-07-20T05:46:40.555Z,7288
2018-07-20T05:47:48.582Z,7380
2018-07-20T05:48:56.670Z,7524
2018-07-20T05:50:21.728Z,7568
2018-07-20T05:51:18.237Z,7608
2018-07-20T05:52:26.314Z,7684
2018-07-20T05:53:34.386Z,7756
2018-07-20T05:54:42.456Z,7836
2018-07-20T05:55:50.510Z,7904
2018-07-20T05:56:58.579Z,7960
2018-07-20T05:58:06.649Z,8020
2018-07-20T05:59:14.716Z,8088
2018-07-20T06:00:23.149Z,8204
2018-07-20T06:01:30.853Z,8364
2018-07-20T06:02:39.188Z,8576
2018-07-20T06:03:46.992Z,8828
2018-07-20T06:04:55.246Z,9132
2018-07-20T06:06:03.324Z,9472
2018-07-20T06:07:11.411Z,9852
2018-07-20T06:08:19.473Z,10172
2018-07-20T06:09:27.552Z,10492
2018-07-20T06:10:35.593Z,10916
2018-07-20T06:11:43.675Z,11232
2018-07-20T06:12:51.753Z,11352
2018-07-20T06:13:59.807Z,11472
2018-07-20T06:15:10.901Z,11728
2018-07-20T06:16:16.958Z,12128
2018-07-20T06:17:25.021Z,12584
2018-07-20T06:18:33.092Z,13080
2018-07-20T06:19:41.359Z,13560
2018-07-20T06:21:00.261Z,13940
2018-07-20T06:22:00.531Z,13588
2018-07-20T06:23:06.810Z,12448
2018-07-20T06:24:13.643Z,11108
2018-07-20T06:25:21.977Z,9960
2018-07-20T06:26:29.980Z,9428
2018-07-20T06:27:38.054Z,9380
2018-07-20T06:28:46.121Z,9512
2018-07-20T06:29:54.188Z,9712
2018-07-20T06:32:19.508Z,9796
2018-07-20T06:33:27.486Z,9784
2018-07-20T06:34:35.577Z,9932
2018-07-20T06:35:43.647Z,10088
2018-07-20T06:36:56.973Z,10396
2018-07-20T06:37:59.972Z,10816
2018-07-20T06:39:08.406Z,11144
2018-07-20T06:40:16.118Z,11244
2018-07-20T06:41:24.448Z,11180
2018-07-20T06:42:32.253Z,11060
2018-07-20T06:43:40.589Z,10964
2018-07-20T06:44:48.572Z,11056
2018-07-20T06:45:56.472Z,11464
2018-07-20T06:47:04.775Z,12296
2018-07-20T06:48:12.608Z,13048
2018-07-20T06:49:20.669Z,13468
2018-07-20T06:50:28.750Z,13644
2018-07-20T06:51:36.821Z,13720
2018-07-20T06:52:44.885Z,13736
2018-07-20T06:53:52.952Z,13652
2018-07-20T06:55:01.026Z,13716
2018-07-20T06:56:09.100Z,13820
2018-07-20T06:57:17.177Z,13736
2018-07-20T06:58:25.216Z,13632
2018-07-20T06:59:33.320Z,13360
2018-07-20T07:00:41.478Z,12892
2018-07-20T07:01:49.555Z,12576
2018-07-20T07:02:57.533Z,12528
2018-07-20T07:04:05.572Z,12580
2018-07-20T07:05:13.670Z,12452
2018-07-20T07:06:21.743Z,12256
2018-07-20T07:07:29.821Z,12084
2018-07-20T07:08:37.985Z,13040
2018-07-20T07:09:45.934Z,12088
2018-07-20T07:10:54.033Z,11980
2018-07-20T07:12:02.098Z,13068
2018-07-20T07:13:10.167Z,14160
2018-07-20T07:14:18.247Z,13328
2018-07-20T07:15:26.323Z,15492
2018-07-20T07:16:34.397Z,16224
2018-07-20T07:17:42.452Z,18624
2018-07-20T07:18:50.540Z,18816
2018-07-20T07:19:58.595Z,20896
2018-07-20T07:21:06.670Z,22048
2018-07-20T07:22:15.062Z,22912
2018-07-20T07:23:27.053Z,29568
2018-07-20T07:24:35.117Z,34880
2018-07-20T07:25:43.203Z,39552
2018-07-20T07:26:51.326Z,36224
2018-07-20T07:27:59.348Z,30336
2018-07-20T07:29:07.423Z,22752
2018-07-20T07:30:15.475Z,26112
2018-07-20T07:31:23.670Z,26080
2018-07-20T07:32:31.996Z,28032
2018-07-20T07:33:39.726Z,19296
2018-07-20T07:34:47.822Z,19104
2018-07-20T07:35:57.544Z,20064
2018-07-20T07:37:03.951Z,36416
2018-07-20T07:38:12.012Z,45344
2018-07-20T07:39:20.097Z,44384
2018-07-20T07:40:28.167Z,44416
2018-07-20T07:41:36.251Z,49600
2018-07-20T07:42:44.329Z,53312
2018-07-20T07:43:52.402Z,50656
2018-07-20T07:45:00.468Z,47296
2018-07-20T07:46:08.556Z,47072
2018-07-20T07:47:23.457Z,50880
2018-07-20T07:48:28.330Z,46560
2018-07-20T07:49:36.458Z,46688
2018-07-20T07:50:44.477Z,47328
2018-07-20T07:51:52.551Z,51712
2018-07-20T07:53:00.635Z,49312
2018-07-20T07:54:08.726Z,51520
2018-07-20T07:55:16.822Z,50816
2018-07-20T07:56:24.888Z,54208
2018-07-20T07:57:32.969Z,58592
2018-07-20T07:58:41.107Z,54432
2018-07-20T07:59:49.114Z,57792
2018-07-20T08:00:57.482Z,56992
2018-07-20T08:02:05.566Z,56448
2018-07-20T08:03:14.071Z,60928
2018-07-20T08:04:22.146Z,58208
2018-07-20T08:05:30.142Z,57440
2018-07-20T08:06:38.464Z,58272
2018-07-20T08:07:46.299Z,61952
2018-07-20T08:08:54.397Z,64800
2018-07-20T08:10:02.680Z,61920
2018-07-20T08:11:10.639Z,58656
2018-07-20T08:12:18.617Z,61344
2018-07-20T08:13:26.715Z,61664
2018-07-20T08:14:34.787Z,63616
2018-07-20T08:15:43.943Z,62496
2018-07-20T08:16:50.950Z,65728
2018-07-20T08:17:59.043Z,65344
2018-07-20T08:19:07.122Z,64512
2018-07-20T08:20:15.182Z,62048
2018-07-20T08:21:23.289Z,64000
2018-07-20T08:22:31.422Z,66688
2018-07-20T08:23:40.372Z,64800
2018-07-20T08:24:47.549Z,63264
2018-07-20T08:25:55.632Z,63680
2018-07-20T08:27:03.713Z,63008
2018-07-20T08:28:11.794Z,61440
2018-07-20T08:29:19.893Z,60320
2018-07-20T08:30:27.946Z,66848
2018-07-20T08:31:36.070Z,68192
2018-07-20T08:32:44.133Z,68352
2018-07-20T08:33:52.206Z,69856
2018-07-20T08:35:00.292Z,68128
2018-07-20T08:36:08.373Z,69952
2018-07-20T08:37:16.726Z,70944
2018-07-20T08:38:24.547Z,71328
2018-07-20T08:39:32.634Z,68768
2018-07-20T08:40:40.710Z,67904
2018-07-20T08:41:48.806Z,57952
2018-07-20T08:42:56.865Z,59296
2018-07-20T08:44:04.956Z,74080
2018-07-20T08:45:13.519Z,44256
2018-07-20T08:46:21.330Z,63488
2018-07-20T08:47:29.427Z,46720
2018-07-20T08:48:37.503Z,75296
2018-07-20T08:49:45.824Z,74016
2018-07-20T08:50:53.675Z,76576
2018-07-20T08:52:02.056Z,72256
2018-07-20T08:53:10.295Z,72480
2018-07-20T08:54:18.140Z,73760
2018-07-20T08:55:26.237Z,74816
2018-07-20T08:56:34.316Z,75008
2018-07-20T08:57:42.391Z,79168
2018-07-20T08:58:50.489Z,74656
2018-07-20T08:59:58.618Z,71008
2018-07-20T09:01:06.650Z,77504
2018-07-20T09:02:14.722Z,76928
2018-07-20T09:03:23.048Z,85600
2018-07-20T09:04:30.894Z,73728
2018-07-20T09:05:39.243Z,72160
2018-07-20T09:06:47.059Z,63424
2018-07-20T09:07:55.134Z,58368
2018-07-20T09:09:03.233Z,68512
2018-07-20T09:10:11.319Z,32896
2018-07-20T09:11:19.408Z,25312
2018-07-20T09:12:27.493Z,20960
2018-07-20T09:13:35.818Z,21152
2018-07-20T09:14:43.865Z,20416
2018-07-20T09:15:51.945Z,28576
2018-07-20T09:17:00.063Z,20032
2018-07-20T09:18:08.152Z,18400
2018-07-20T09:19:16.196Z,16824
2018-07-20T09:20:24.474Z,19712
2018-07-20T09:21:32.536Z,17408
2018-07-20T09:22:40.836Z,15796
2018-07-20T09:23:48.934Z,15024
2018-07-20T09:24:59.094Z,13588
2018-07-20T09:26:05.171Z,13724
2018-07-20T09:27:13.179Z,18304
2018-07-20T09:28:21.302Z,17800
2018-07-20T09:29:29.347Z,19040
2018-07-20T09:30:39.837Z,19776
2018-07-20T09:31:47.959Z,19264
2018-07-20T09:32:55.972Z,17668
2018-07-20T09:34:04.114Z,15444
2018-07-20T09:35:12.147Z,15644
2018-07-20T09:36:20.222Z,15016
2018-07-20T09:37:28.309Z,14880
2018-07-20T09:38:36.387Z,15868
2018-07-20T09:39:45.517Z,16900
2018-07-20T09:40:52.549Z,17444
2018-07-20T09:42:00.614Z,18300
2018-07-20T09:43:08.704Z,19136
2018-07-20T09:44:16.802Z,18316
2018-07-20T09:45:25.094Z,17028
2018-07-20T09:46:32.914Z,15920
2018-07-20T09:47:41.010Z,15168
2018-07-20T09:48:49.095Z,14692
2018-07-20T09:49:57.166Z,14408
2018-07-20T09:51:05.214Z,14180
2018-07-20T09:52:13.305Z,14068
2018-07-20T09:53:21.406Z,14112
2018-07-20T09:54:29.475Z,14148
2018-07-20T09:55:37.552Z,14152
2018-07-20T09:56:45.600Z,14064
2018-07-20T09:57:53.707Z,13996
2018-07-20T09:59:01.870Z,13676
2018-07-20T10:00:09.842Z,13620
2018-07-20T10:01:17.964Z,13468
2018-07-20T10:02:25.981Z,13468
2018-07-20T10:03:34.078Z,13772
2018-07-20T10:04:42.163Z,14280
2018-07-20T10:05:50.331Z,15064
2018-07-20T10:06:58.321Z,14636
2018-07-20T10:08:06.400Z,14028
2018-07-20T10:09:14.460Z,13744
2018-07-20T10:10:22.538Z,13772
2018-07-20T10:11:30.658Z,13944
2018-07-20T10:12:38.699Z,14188
2018-07-20T10:13:46.760Z,14700
2018-07-20T10:14:54.845Z,15408
2018-07-20T10:16:02.919Z,16164
2018-07-20T10:17:10.996Z,17076
2018-07-20T10:18:19.067Z,17952
2018-07-20T10:19:27.140Z,19072
2018-07-20T10:20:35.195Z,19936
2018-07-20T10:21:43.305Z,20512
2018-07-20T10:22:51.369Z,20096
2018-07-20T10:23:59.448Z,18880
2018-07-20T10:25:07.537Z,17788
2018-07-20T10:26:15.584Z,17180
2018-07-20T10:27:23.694Z,16896
2018-07-20T10:28:31.778Z,17080
2018-07-20T10:29:39.841Z,17116
2018-07-20T10:30:47.956Z,17188
2018-07-20T10:31:55.963Z,17388
2018-07-20T10:33:04.061Z,17412
2018-07-20T10:34:12.156Z,17820
2018-07-20T10:35:20.221Z,16980
2018-07-20T10:36:28.300Z,16272
2018-07-20T10:37:36.855Z,15520
2018-07-20T10:38:44.454Z,14788
2018-07-20T10:39:52.621Z,14056
2018-07-20T10:41:00.636Z,13524
2018-07-20T10:42:08.684Z,13328
2018-07-20T10:43:16.746Z,13308
2018-07-20T10:44:24.836Z,13380
2018-07-20T10:45:32.912Z,13500
2018-07-20T10:46:40.997Z,13336
2018-07-20T10:47:49.064Z,13492
2018-07-20T10:48:57.144Z,15172
2018-07-20T10:50:05.199Z,16148
2018-07-20T10:51:14.291Z,17032
2018-07-20T10:52:23.380Z,17536
2018-07-20T10:53:30.443Z,18656
2018-07-20T10:54:38.528Z,19296
2018-07-20T10:55:46.595Z,20256
2018-07-20T10:56:54.664Z,20960
2018-07-20T10:58:02.754Z,21408
2018-07-20T10:59:10.828Z,22112
2018-07-20T11:00:18.895Z,20544
2018-07-20T11:01:27.061Z,18304
2018-07-20T11:02:35.046Z,17568
2018-07-20T11:03:43.149Z,16984
2018-07-20T11:04:51.205Z,16380
2018-07-20T11:05:59.289Z,16784
2018-07-20T11:07:07.370Z,16888
2018-07-20T11:08:15.410Z,16372
2018-07-20T11:09:23.514Z,15856
2018-07-20T11:10:31.636Z,14008
2018-07-20T11:11:39.720Z,13064
2018-07-20T11:12:47.753Z,12260
2018-07-20T11:13:55.802Z,11352
2018-07-20T11:15:04.151Z,10836
2018-07-20T11:16:11.993Z,10552
2018-07-20T11:17:20.053Z,10356
2018-07-20T11:18:28.115Z,10188
2018-07-20T11:19:36.219Z,10076
2018-07-20T11:20:44.484Z,10016
2018-07-20T11:21:52.569Z,10080
2018-07-20T11:23:00.948Z,10052
2018-07-20T11:24:08.712Z,9888
2018-07-20T11:25:16.787Z,9884
2018-07-20T11:26:24.921Z,9840
2018-07-20T11:27:32.942Z,10024
2018-07-20T11:28:41.015Z,10372
2018-07-20T11:29:49.101Z,10508
2018-07-20T11:30:57.175Z,11568
2018-07-20T11:32:06.250Z,11968
2018-07-20T11:33:13.329Z,11268
2018-07-20T11:34:21.510Z,11148
2018-07-20T11:35:29.483Z,11596
2018-07-20T11:36:37.551Z,12328
2018-07-20T11:37:45.604Z,12840
2018-07-20T11:38:53.703Z,13028
2018-07-20T11:40:01.797Z,13172
2018-07-20T11:41:09.855Z,13004
2018-07-20T11:42:17.934Z,12684
2018-07-20T11:43:25.998Z,12048
2018-07-20T11:44:34.091Z,11912
2018-07-20T11:45:42.163Z,12692
2018-07-20T11:46:50.243Z,16200
2018-07-20T11:47:58.325Z,19552
2018-07-20T11:49:06.388Z,20672
2018-07-20T11:50:14.469Z,20512
2018-07-20T11:51:22.551Z,20128
2018-07-20T11:52:30.625Z,21120
2018-07-20T11:53:38.714Z,21760
2018-07-20T11:54:46.774Z,22976
2018-07-20T11:55:54.939Z,24128
2018-07-20T11:57:02.924Z,23072
2018-07-20T11:58:11.017Z,21312
2018-07-20T11:59:19.093Z,19776
2018-07-20T12:00:27.163Z,19168
2018-07-20T12:01:35.209Z,18912
2018-07-20T12:02:43.314Z,17728
2018-07-20T12:03:51.407Z,15784
2018-07-20T12:04:59.472Z,14104
2018-07-20T12:06:07.545Z,13224
2018-07-20T12:07:15.606Z,12628
2018-07-20T12:08:23.743Z,12320
2018-07-20T12:09:31.787Z,12248
2018-07-20T12:10:39.868Z,11608
2018-07-20T12:11:47.932Z,10820
2018-07-20T12:12:57.063Z,10488
2018-07-20T12:14:04.094Z,10748
2018-07-20T12:15:12.175Z,11244
2018-07-20T12:16:20.250Z,10656
2018-07-20T12:17:28.339Z,10220
2018-07-20T12:18:36.602Z,9724
2018-07-20T12:19:44.988Z,8760
2018-07-20T12:20:52.761Z,8448
2018-07-20T12:22:00.927Z,8680
2018-07-20T12:23:09.169Z,8724
2018-07-20T12:24:17.008Z,8676
2018-07-20T12:25:25.058Z,8496
2018-07-20T12:26:33.140Z,8356
2018-07-20T12:27:41.224Z,8572
2018-07-20T12:28:49.296Z,8996
2018-07-20T12:29:57.434Z,9328
2018-07-20T12:31:05.471Z,9496
2018-07-20T12:32:13.517Z,9704
2018-07-20T12:33:21.588Z,10016
2018-07-20T12:34:29.665Z,10452
2018-07-20T12:35:37.755Z,10856
2018-07-20T12:36:45.798Z,11208
2018-07-20T12:37:53.890Z,11192
2018-07-20T12:39:01.989Z,10808
2018-07-20T12:40:10.056Z,10332
2018-07-20T12:41:18.136Z,9888
2018-07-20T12:42:26.199Z,9464
2018-07-20T12:43:34.267Z,9188
2018-07-20T12:44:43.374Z,8984
2018-07-20T12:45:50.435Z,8916
2018-07-20T12:46:58.512Z,8928
2018-07-20T12:48:06.668Z,8916
2018-07-20T12:49:14.690Z,8792
2018-07-20T12:50:22.838Z,8592
2018-07-20T12:51:30.805Z,8452
2018-07-20T12:52:38.894Z,8432
2018-07-20T12:53:47.007Z,8432
2018-07-20T12:54:55.013Z,8500
2018-07-20T12:56:03.105Z,8548
2018-07-20T12:57:11.217Z,8640
2018-07-20T12:58:19.285Z,8744
2018-07-20T12:59:27.335Z,8984
2018-07-20T13:00:35.379Z,9312
2018-07-20T13:01:43.568Z,9704
2018-07-20T13:02:51.748Z,10156
2018-07-20T13:04:00.146Z,10716
2018-07-20T13:05:07.906Z,11628
2018-07-20T13:06:15.964Z,12456
2018-07-20T13:07:24.076Z,13048
2018-07-20T13:08:32.131Z,13124
2018-07-20T13:09:40.318Z,12588
2018-07-20T13:10:48.290Z,11828
2018-07-20T13:11:56.493Z,11152
2018-07-20T13:13:04.431Z,10608
2018-07-20T13:14:12.502Z,9956
2018-07-20T13:15:20.592Z,9620
2018-07-20T13:16:28.664Z,9712
2018-07-20T13:17:37.779Z,10184
2018-07-20T13:18:44.865Z,10744
2018-07-20T13:19:52.904Z,11124
2018-07-20T13:21:00.964Z,11184
2018-07-20T13:22:09.033Z,11020
2018-07-20T13:23:17.119Z,10900
2018-07-20T13:24:25.178Z,10916
2018-07-20T13:25:33.259Z,10960
2018-07-20T13:26:41.334Z,11292
2018-07-20T13:27:49.410Z,11672
2018-07-20T13:28:57.486Z,11988
2018-07-20T13:30:05.532Z,12264
2018-07-20T13:31:13.633Z,12624
2018-07-20T13:32:21.716Z,13008
2018-07-20T13:33:29.844Z,13368
2018-07-20T13:34:37.865Z,13676
2018-07-20T13:35:45.915Z,13940
2018-07-20T13:36:54.017Z,14088
2018-07-20T13:38:02.151Z,13820
2018-07-20T13:39:10.159Z,13380
2018-07-20T13:40:18.240Z,13004
2018-07-20T13:41:26.316Z,12968
2018-07-20T13:42:34.397Z,13156
2018-07-20T13:43:42.459Z,13296
2018-07-20T13:44:50.535Z,13168
2018-07-20T13:45:58.745Z,13024
2018-07-20T13:47:06.943Z,13040
2018-07-20T13:48:14.756Z,13116
2018-07-20T13:49:22.837Z,13100
2018-07-20T13:50:30.917Z,12936
2018-07-20T13:51:38.989Z,12684
2018-07-20T13:52:47.155Z,12456
2018-07-20T13:53:55.176Z,12216
2018-07-20T13:55:03.218Z,12056
2018-07-20T13:56:11.286Z,11972
2018-07-20T13:57:19.374Z,11920
2018-07-20T13:58:27.747Z,11928
2018-07-20T13:59:35.491Z,12168
2018-07-20T14:00:43.587Z,12548
2018-07-20T14:01:51.710Z,12968
2018-07-20T14:02:59.747Z,13288
2018-07-20T14:04:07.852Z,13296
2018-07-20T14:05:16.229Z,12896
2018-07-20T14:06:23.964Z,12244
2018-07-20T14:07:32.026Z,11476
2018-07-20T14:08:40.120Z,10736
2018-07-20T14:09:48.254Z,10196
2018-07-20T14:10:56.323Z,9856
2018-07-20T14:12:04.350Z,9520
2018-07-20T14:13:12.433Z,9152
2018-07-20T14:14:20.746Z,8792
2018-07-20T14:15:28.778Z,8396
2018-07-20T14:16:37.068Z,8100
2018-07-20T14:17:45.203Z,8044
2018-07-20T14:18:53.343Z,8060
2018-07-20T14:20:01.288Z,8080
2018-07-20T14:21:09.349Z,8044
2018-07-20T14:22:17.418Z,7880
2018-07-20T14:23:25.468Z,7528
2018-07-20T14:24:33.580Z,7040
2018-07-20T14:25:41.644Z,6612
2018-07-20T14:26:49.758Z,6388
2018-07-20T14:27:57.909Z,6260
2018-07-20T14:29:05.849Z,6152
2018-07-20T14:30:13.945Z,6048
2018-07-20T14:31:22.049Z,5872
2018-07-20T14:32:30.087Z,5804
2018-07-20T14:33:38.167Z,5792
2018-07-20T14:34:46.232Z,5760
2018-07-20T14:35:54.316Z,5800
2018-07-20T14:37:02.393Z,6008
2018-07-20T14:38:10.465Z,6484
2018-07-20T14:39:18.549Z,7276
2018-07-20T14:40:26.666Z,8424
2018-07-20T14:41:34.696Z,9780
2018-07-20T14:42:42.849Z,11228
2018-07-20T14:43:50.831Z,12560
2018-07-20T14:44:58.916Z,13804
2018-07-20T14:46:06.978Z,14948
2018-07-20T14:47:16.098Z,16044
2018-07-20T14:48:23.333Z,17056
2018-07-20T14:49:31.404Z,17568
2018-07-20T14:50:40.498Z,17792
2018-07-20T14:51:47.567Z,17600
2018-07-20T14:52:55.596Z,16596
2018-07-20T14:54:03.917Z,15288
2018-07-20T14:55:12.014Z,13872
2018-07-20T14:56:20.056Z,12676
2018-07-20T14:57:28.134Z,11844
2018-07-20T14:58:36.183Z,11368
2018-07-20T14:59:44.290Z,11140
2018-07-20T15:00:52.450Z,11152
2018-07-20T15:02:00.414Z,11376
2018-07-20T15:03:08.768Z,11676
2018-07-20T15:04:16.554Z,11968
2018-07-20T15:05:24.685Z,12252
2018-07-20T15:06:32.721Z,12452
2018-07-20T15:07:40.793Z,12616
2018-07-20T15:08:48.874Z,12836
2018-07-20T15:09:56.934Z,13100
2018-07-20T15:11:05.191Z,13264
2018-07-20T15:12:14.322Z,13320
2018-07-20T15:13:21.372Z,13176
2018-07-20T15:14:29.454Z,13024
2018-07-20T15:15:37.516Z,12816